Time;durP1;ratioP1;P1;durP2;ratioP2;P2;SDS_P1;SDS_P2;PMS_P1;PMS_P2;Temp;Humidity;BMP_temperature;BMP_pressure;BME280_temperature;BME280_humidity;BME280_pressure;Samples;Min_cycle;Max_cycle;Signal;HPM_P1;HPM_P2
2022/11/16 00:01:04;;;;;;;41.03;37.03;;;;;;;21.24;37.68;94785.72;6164121;28;104153;-82
2022/11/16 00:04:11;;;;;;;40.23;36.37;;;;;;;21.24;37.85;94785.72;6167605;28;102859;-83
2022/11/16 00:07:14;;;;;;;40.60;36.80;;;;;;;21.25;37.96;94778.50;6168132;28;106535;-82
2022/11/16 00:10:20;;;;;;;40.23;36.43;;;;;;;21.22;38.20;94777.25;6168097;28;104151;-82
2022/11/16 00:13:23;;;;;;;42.10;38.10;;;;;;;21.24;38.09;94785.72;6160581;28;104969;-82
2022/11/16 00:16:26;;;;;;;39.80;36.20;;;;;;;21.21;38.03;94775.69;6169413;28;103896;-82
2022/11/16 00:19:31;;;;;;;38.97;35.27;;;;;;;21.23;38.29;94788.69;6169175;28;106500;-82
2022/11/16 00:22:34;;;;;;;38.43;34.87;;;;;;;21.22;38.53;94782.56;6169453;28;106267;-82
2022/11/16 00:25:37;;;;;;;39.80;35.80;;;;;;;21.20;38.36;94774.13;6161612;28;105001;-82
2022/11/16 00:28:40;;;;;;;39.00;35.30;;;;;;;21.20;38.55;94763.47;6169886;28;104212;-83
2022/11/16 00:31:44;;;;;;;38.17;34.57;;;;;;;21.20;37.96;94777.56;6169063;28;107468;-83
2022/11/16 00:34:49;;;;;;;37.53;34.10;;;;;;;21.19;38.28;94761.91;6187406;28;103835;-81
2022/11/16 00:37:52;;;;;;;39.03;35.30;;;;;;;21.19;38.02;94759.25;6161895;28;103079;-82
2022/11/16 00:40:55;;;;;;;36.93;33.40;;;;;;;21.22;37.89;94761.28;6169617;28;106468;-82
2022/11/16 00:43:58;;;;;;;37.50;34.10;;;;;;;21.19;37.86;94761.91;6168270;28;103398;-82
2022/11/16 00:47:01;;;;;;;37.43;33.73;;;;;;;21.19;38.45;94764.56;6163673;28;103862;-81
2022/11/16 00:50:06;;;;;;;37.00;33.57;;;;;;;21.18;38.13;94750.47;6165847;28;107306;-83
2022/11/16 00:53:13;;;;;;;36.70;33.20;;;;;;;21.19;38.11;94740.63;6168271;28;104556;-82
2022/11/16 00:56:16;;;;;;;37.07;33.50;;;;;;;21.20;38.23;94747.50;6168954;28;106243;-82
2022/11/16 00:59:19;;;;;;;36.70;33.10;;;;;;;21.18;37.84;94744.38;6160209;28;103546;-83
2022/11/16 01:02:23;;;;;;;36.27;32.87;;;;;;;21.18;37.83;94741.69;6169294;28;104425;-82
2022/11/16 01:05:28;;;;;;;35.90;32.50;;;;;;;21.18;37.84;94734.50;6162106;28;105424;-82
2022/11/16 01:08:31;;;;;;;36.93;33.47;;;;;;;21.17;38.17;94734.78;6168105;28;105543;-82
2022/11/16 01:14:55;;;;;;;35.33;31.97;;;;;;;21.16;38.35;94720.69;6168857;28;105723;-82
2022/11/16 01:17:59;;;;;;;36.07;32.67;;;;;;;21.16;38.12;94715.38;6168022;28;102858;-83
2022/11/16 01:21:06;;;;;;;34.40;31.20;;;;;;;21.16;37.67;94717.25;6164861;28;104175;-83
2022/11/16 01:24:09;;;;;;;34.07;30.90;;;;;;;21.18;38.17;94715.09;6164495;28;104314;-83
2022/11/16 01:27:12;;;;;;;34.40;31.20;;;;;;;21.16;38.04;94709.28;6169368;28;105977;-82
2022/11/16 01:30:16;;;;;;;33.50;30.30;;;;;;;21.16;37.81;94709.28;6167904;28;103246;-82
2022/11/16 01:33:19;;;;;;;32.97;29.90;;;;;;;21.15;37.72;94713.03;6159549;28;103271;-82
2022/11/16 01:36:23;;;;;;;32.70;29.57;;;;;;;21.15;38.15;94710.38;6168586;28;105408;-82
2022/11/16 01:39:27;;;;;;;34.77;31.40;;;;;;;21.16;38.12;94712.72;6167968;28;105060;-83
2022/11/16 01:42:32;;;;;;;32.73;29.73;;;;;;;21.15;38.00;94710.38;6168348;28;102555;-82
2022/11/16 01:45:39;;;;;;;33.40;30.20;;;;;;;21.14;38.05;94700.81;6160738;28;105863;-82
2022/11/16 01:48:43;;;;;;;33.20;30.10;;;;;;;21.14;37.72;94709.59;6167799;28;105781;-82
2022/11/16 01:51:51;;;;;;;32.20;29.10;;;;;;;21.14;38.08;94717.56;6167552;28;105607;-82
2022/11/16 01:54:55;;;;;;;31.70;28.80;;;;;;;21.14;37.94;94698.94;6168225;28;106451;-82
2022/11/16 01:57:59;;;;;;;32.17;29.07;;;;;;;21.15;38.13;94705.03;6159918;28;105492;-82
2022/11/16 02:01:02;;;;;;;32.80;29.90;;;;;;;21.15;37.94;94702.38;6160689;28;104553;-82
2022/11/16 02:04:06;;;;;;;31.93;28.90;;;;;;;21.12;37.51;94697.69;6166725;28;104593;-82
2022/11/16 02:07:21;;;;;;;31.40;28.40;;;;;;;21.15;37.96;94697.84;6162510;28;103094;-82
2022/11/16 02:10:39;;;;;;;30.97;27.97;;;;;;;21.11;37.88;94685.47;6153226;28;103242;-82
2022/11/16 02:13:52;;;;;;;31.87;28.70;;;;;;;21.11;37.45;94691.56;6142490;28;103383;-82
2022/11/16 02:17:12;;;;;;;32.83;29.60;;;;;;;21.14;37.64;94690.97;6166927;28;107179;-82
2022/11/16 02:20:44;;;;;;;31.53;28.43;;;;;;;21.11;37.67;94680.16;6157939;28;105293;-83
2022/11/16 02:24:06;;;;;;;31.30;28.37;;;;;;;21.14;37.96;94676.88;6166617;28;104578;-83
2022/11/16 02:27:46;;;;;;;31.60;28.67;;;;;;;21.13;37.68;94683.28;6166318;28;102984;-81
2022/11/16 02:30:54;;;;;;;32.10;28.90;;;;;;;21.13;37.56;94677.97;6136796;28;104296;-79
2022/11/16 02:33:59;;;;;;;30.63;27.63;;;;;;;21.12;37.95;94676.41;6142034;28;103107;-80
2022/11/16 02:37:05;;;;;;;28.20;25.53;;;;;;;21.12;37.64;94668.41;6142272;28;102963;-79
2022/11/16 02:40:15;;;;;;;30.07;27.00;;;;;;;21.16;37.69;94672.03;6157652;28;103074;-79
2022/11/16 02:43:25;;;;;;;30.10;27.20;;;;;;;21.07;37.56;94664.03;6155911;28;104389;-79
2022/11/16 02:46:38;;;;;;;29.80;26.90;;;;;;;21.12;37.71;94671.84;6165042;28;103029;-78
2022/11/16 02:49:47;;;;;;;30.17;27.27;;;;;;;21.13;37.54;94667.31;6165485;28;106379;-79
2022/11/16 02:52:50;;;;;;;31.43;28.40;;;;;;;21.11;37.81;94662.31;6158904;28;105289;-80
2022/11/16 02:55:55;;;;;;;29.27;26.57;;;;;;;21.10;37.58;94666.06;6163773;28;103457;-79
2022/11/16 02:58:59;;;;;;;28.43;25.67;;;;;;;21.09;37.80;94663.72;6164998;28;102813;-79
2022/11/16 03:02:17;;;;;;;29.50;26.70;;;;;;;21.13;37.64;94660.13;6165176;28;105834;-79
2022/11/16 03:05:30;;;;;;;30.53;27.73;;;;;;;21.10;37.58;94658.09;6156795;28;103299;-79
2022/11/16 03:08:38;;;;;;;28.10;25.43;;;;;;;21.09;37.56;94655.72;6164902;28;105480;-80
2022/11/16 03:12:01;;;;;;;29.90;26.80;;;;;;;21.09;37.48;94650.41;6166344;28;106246;-79
2022/11/16 03:15:10;;;;;;;29.50;26.80;;;;;;;21.11;37.47;94645.56;6154641;28;105552;-80
2022/11/16 03:18:16;;;;;;;27.17;24.67;;;;;;;21.10;37.56;94636.00;6164767;28;103372;-80
2022/11/16 03:21:28;;;;;;;27.47;24.67;;;;;;;21.13;37.57;94640.72;6169675;28;105995;-80
2022/11/16 03:24:32;;;;;;;28.90;26.20;;;;;;;21.12;37.93;94647.13;6169631;28;104353;-80
2022/11/16 03:27:38;;;;;;;27.97;25.27;;;;;;;21.10;37.56;94644.00;6161823;28;103156;-80
2022/11/16 03:30:45;;;;;;;26.67;24.10;;;;;;;21.14;37.33;94644.94;6169152;28;103079;-80
2022/11/16 03:33:54;;;;;;;28.20;25.40;;;;;;;21.11;37.61;94634.94;6169044;28;103108;-80
2022/11/16 03:37:00;;;;;;;28.03;25.43;;;;;;;21.10;37.73;94639.47;6169608;28;106794;-80
2022/11/16 03:40:06;;;;;;;28.67;25.90;;;;;;;21.11;37.57;94646.34;6161751;28;105466;-79
2022/11/16 03:43:10;;;;;;;28.77;26.00;;;;;;;21.11;37.99;94637.59;6169248;28;105889;-79
2022/11/16 03:46:15;;;;;;;26.90;24.37;;;;;;;21.10;37.53;94644.00;6168397;28;103466;-80
2022/11/16 03:49:22;;;;;;;28.20;25.47;;;;;;;21.09;37.98;94645.88;6167243;28;107285;-82
2022/11/16 03:52:26;;;;;;;27.60;25.07;;;;;;;21.08;37.78;94639.00;6164370;28;104418;-79
2022/11/16 03:55:29;;;;;;;28.20;25.60;;;;;;;21.06;37.80;94635.06;6168546;28;106812;-80
2022/11/16 03:58:32;;;;;;;26.90;24.50;;;;;;;21.07;37.73;94634.75;6155733;28;103234;-81
2022/11/16 04:01:35;;;;;;;26.50;23.93;;;;;;;21.10;37.45;94636.00;6161277;28;105552;-79
2022/11/16 04:25:10;;;;;;;24.30;22.00;;;;;;;21.19;38.22;94607.56;6151811;28;105421;-81
2022/11/16 04:28:15;;;;;;;24.77;22.50;;;;;;;21.30;38.32;94613.38;6164634;28;103366;-81
2022/11/16 04:38:09;;;;;;;28.23;25.63;;;;;;;21.31;39.19;94614.94;6165031;28;102819;-80
2022/11/16 04:47:52;;;;;;;26.87;24.53;;;;;;;21.29;39.22;94595.81;6158567;28;103588;-80
2022/11/16 04:50:55;;;;;;;29.90;26.67;;;;;;;21.23;39.77;94599.75;6169199;28;107407;-81
2022/11/16 04:54:00;;;;;;;29.00;26.20;;;;;;;21.22;39.52;94609.59;6169936;28;104171;-80
2022/11/16 04:57:03;;;;;;;30.20;27.20;;;;;;;21.23;39.77;94616.50;6147083;28;106209;-81
2022/11/16 05:00:08;;;;;;;28.43;25.63;;;;;;;21.21;40.06;94600.06;6161443;28;103371;-80
2022/11/16 05:03:11;;;;;;;28.83;26.03;;;;;;;21.17;40.07;94604.41;6169401;28;102545;-80
2022/11/16 05:06:14;;;;;;;30.00;27.20;;;;;;;21.18;40.22;94601.47;6168586;28;107019;-81
2022/11/16 05:09:19;;;;;;;31.27;28.13;;;;;;;21.32;40.50;94595.97;6166962;28;103249;-82
2022/11/16 05:12:26;;;;;;;30.23;27.30;;;;;;;21.32;40.83;94606.63;6159903;28;103906;-82
2022/11/16 05:15:29;;;;;;;32.13;28.83;;;;;;;21.33;40.55;94599.44;6157338;28;104393;-84
2022/11/16 05:18:33;;;;;;;31.17;28.07;;;;;;;21.31;40.19;94605.06;6167091;28;104969;-83
2022/11/16 05:21:35;;;;;;;29.87;27.07;;;;;;;21.32;40.09;94595.97;6161782;28;107123;-82
2022/11/16 05:24:40;;;;;;;28.70;25.93;;;;;;;21.36;39.31;94591.63;6167519;28;103302;-82
2022/11/16 05:27:43;;;;;;;29.83;26.60;;;;;;;21.31;39.37;94591.75;6168119;28;104207;-85
2022/11/16 05:30:46;;;;;;;27.03;24.57;;;;;;;21.29;39.41;94579.88;6168574;28;103452;-83
2022/11/16 05:33:49;;;;;;;27.90;25.00;;;;;;;21.33;39.26;94592.22;6160995;28;103633;-83
2022/11/16 05:36:53;;;;;;;27.00;24.23;;;;;;;21.28;39.01;94586.28;6168693;28;102967;-81
2022/11/16 05:39:57;;;;;;;26.53;23.77;;;;;;;21.19;39.38;94589.72;6168821;28;105325;-82
2022/11/16 05:43:01;;;;;;;25.40;22.80;;;;;;;21.14;39.25;94589.06;6169442;28;105287;-82
2022/11/16 05:46:04;;;;;;;27.27;24.60;;;;;;;21.13;39.30;94590.16;6160537;28;105211;-83
2022/11/16 05:49:07;;;;;;;25.30;22.80;;;;;;;21.11;38.73;94592.34;6167820;28;102597;-83
2022/11/16 05:52:11;;;;;;;25.03;22.53;;;;;;;21.10;38.97;94593.44;6166812;28;103060;-81
2022/11/16 05:55:16;;;;;;;25.33;22.73;;;;;;;21.10;38.43;94596.09;6164157;28;103362;-80
2022/11/16 05:58:19;;;;;;;26.80;24.10;;;;;;;21.07;38.41;94591.41;6162418;28;106397;-81
2022/11/16 06:01:22;;;;;;;27.10;24.50;;;;;;;21.09;38.49;94594.53;6168191;28;103314;-82
2022/11/16 06:04:26;;;;;;;25.60;23.20;;;;;;;21.07;38.44;94602.06;6168155;28;105770;-82
2022/11/16 06:07:29;;;;;;;26.57;24.00;;;;;;;21.08;38.18;94603.63;6159718;28;103953;-82
2022/11/16 06:10:34;;;;;;;25.80;23.23;;;;;;;21.07;38.17;94597.53;6168439;28;105483;-82
2022/11/16 06:13:37;;;;;;;26.63;24.13;;;;;;;21.10;38.02;94594.22;6167686;28;103442;-79
2022/11/16 06:16:40;;;;;;;25.00;22.70;;;;;;;21.16;37.64;94600.97;6166029;28;102813;-79
2022/11/16 06:19:44;;;;;;;25.80;23.30;;;;;;;21.16;37.80;94602.84;6158783;28;102989;-79
2022/11/16 06:22:47;;;;;;;24.40;22.10;;;;;;;21.19;37.74;94596.94;6165380;28;104033;-80
2022/11/16 06:25:54;;;;;;;24.40;22.07;;;;;;;21.23;37.17;94602.41;6166387;28;104666;-79
2022/11/16 06:28:57;;;;;;;25.00;22.53;;;;;;;21.18;37.36;94600.69;6166227;28;105117;-78
2022/11/16 06:32:02;;;;;;;25.27;22.87;;;;;;;21.21;37.54;94598.19;6156952;28;103002;-79
2022/11/16 06:35:06;;;;;;;23.70;21.47;;;;;;;21.22;37.53;94585.66;6166578;28;103273;-79
2022/11/16 06:38:10;;;;;;;22.77;20.77;;;;;;;21.26;37.16;94601.78;6165248;28;103462;-79
2022/11/16 06:41:14;;;;;;;25.60;23.30;;;;;;;21.21;37.27;94600.06;6160382;28;103274;-81
2022/11/16 06:44:17;;;;;;;23.27;21.17;;;;;;;21.26;37.32;94599.91;6165884;28;105328;-79
2022/11/16 06:47:20;;;;;;;23.13;20.90;;;;;;;21.25;37.10;94590.34;6168368;28;102972;-80
2022/11/16 06:50:23;;;;;;;23.33;21.10;;;;;;;21.26;37.43;94591.91;6172773;28;107696;-79
2022/11/16 06:53:27;;;;;;;24.93;22.63;;;;;;;21.26;37.46;94583.94;6163848;28;106426;-81
2022/11/16 06:56:35;;;;;;;21.70;19.80;;;;;;;21.22;37.45;94585.66;6172865;28;104900;-81
2022/11/16 06:59:38;;;;;;;23.70;21.60;;;;;;;21.25;37.15;94587.69;6172209;28;105565;-80
2022/11/16 07:02:41;;;;;;;22.37;20.17;;;;;;;21.26;37.34;94599.91;6172756;28;102508;-78
2022/11/16 07:05:44;;;;;;;23.43;21.27;;;;;;;21.23;37.30;94581.91;6164577;28;103480;-79
2022/11/16 07:08:47;;;;;;;22.53;20.33;;;;;;;21.24;37.23;94583.47;6171985;28;105360;-79
2022/11/16 07:11:52;;;;;;;21.87;19.87;;;;;;;21.24;37.26;94585.34;6171747;28;103205;-80
2022/11/16 07:14:55;;;;;;;22.80;20.80;;;;;;;21.20;37.42;94572.66;6168601;28;105377;-79
2022/11/16 07:18:03;;;;;;;23.10;21.00;;;;;;;21.23;37.16;94581.91;6166950;28;103194;-79
2022/11/16 07:21:07;;;;;;;24.40;22.20;;;;;;;21.23;37.29;94591.75;6172326;28;103497;-79
2022/11/16 07:24:10;;;;;;;22.57;20.67;;;;;;;21.23;37.37;94573.91;6171341;28;103299;-79
2022/11/16 07:27:15;;;;;;;23.10;21.00;;;;;;;21.25;37.47;94585.03;6164552;28;102824;-78
2022/11/16 07:30:18;;;;;;;21.97;20.00;;;;;;;21.24;37.25;94578.13;6171253;28;103522;-79
2022/11/16 07:33:22;;;;;;;22.17;20.13;;;;;;;21.22;37.14;94569.69;6171840;28;103146;-79
2022/11/16 07:36:25;;;;;;;21.77;19.77;;;;;;;21.20;37.08;94572.66;6172178;28;106438;-80
2022/11/16 07:39:28;;;;;;;22.90;20.90;;;;;;;21.23;37.17;94567.81;6163883;28;102839;-80
2022/11/16 07:42:33;;;;;;;22.57;20.37;;;;;;;21.24;37.28;94562.19;6173130;28;103351;-80
2022/11/16 07:45:36;;;;;;;21.33;19.40;;;;;;;21.24;37.11;94564.84;6174693;28;102876;-80
2022/11/16 07:48:41;;;;;;;21.30;19.40;;;;;;;21.22;37.40;94561.72;6172848;28;103011;-82
2022/11/16 07:51:45;;;;;;;22.47;20.40;;;;;;;21.26;37.18;94570.63;6167952;28;102822;-80
2022/11/16 07:54:48;;;;;;;21.57;19.70;;;;;;;21.23;37.27;94568.59;6171807;28;104666;-80
2022/11/16 07:57:52;;;;;;;20.70;18.80;;;;;;;21.25;37.32;94552.31;6175126;28;105212;-81
2022/11/16 08:01:03;;;;;;;21.23;19.30;;;;;;;21.27;37.60;94561.53;6167174;28;104388;-81
2022/11/16 08:04:06;;;;;;;22.50;20.50;;;;;;;21.27;37.26;94560.75;6173918;28;103018;-81
2022/11/16 08:07:10;;;;;;;21.20;19.23;;;;;;;21.27;36.97;94566.88;6175005;28;103440;-78
2022/11/16 08:10:13;;;;;;;20.20;18.40;;;;;;;21.27;37.00;94553.56;6174272;28;103380;-81
2022/11/16 08:13:18;;;;;;;21.37;19.37;;;;;;;21.28;37.47;94552.47;6167830;28;105615;-81
2022/11/16 08:16:22;;;;;;;19.80;18.00;;;;;;;21.28;36.98;94547.16;6171885;28;103950;-79
2022/11/16 08:19:25;;;;;;;22.03;19.93;;;;;;;21.27;37.20;94544.81;6172041;28;104004;-82
2022/11/16 08:22:29;;;;;;;21.20;19.30;;;;;;;21.27;37.28;94544.81;6173119;28;104391;-82
2022/11/16 08:25:32;;;;;;;20.50;18.70;;;;;;;21.26;36.97;94540.56;6163637;28;103255;-82
2022/11/16 08:28:37;;;;;;;19.20;17.40;;;;;;;21.19;37.20;94517.09;6172698;28;105495;-81
2022/11/16 08:31:40;;;;;;;20.43;18.53;;;;;;;21.27;37.06;94532.28;6170737;28;103451;-80
2022/11/16 08:34:43;;;;;;;20.37;18.47;;;;;;;21.28;37.63;94525.84;6165673;28;105539;-80
2022/11/16 08:37:47;;;;;;;21.23;19.33;;;;;;;21.28;37.54;94528.53;6168593;28;103550;-80
2022/11/16 08:40:51;;;;;;;20.57;18.57;;;;;;;21.29;37.11;94521.31;6170201;28;103848;-80
2022/11/16 08:43:55;;;;;;;20.40;18.60;;;;;;;21.28;37.54;94523.19;6169798;28;102842;-80
2022/11/16 08:46:59;;;;;;;20.20;18.47;;;;;;;21.27;37.01;94520.84;6163198;28;104711;-81
2022/11/16 08:50:02;;;;;;;19.63;17.93;;;;;;;21.25;37.16;94518.50;6170590;28;103933;-82
2022/11/16 08:53:05;;;;;;;20.57;18.77;;;;;;;21.22;37.63;94511.16;6170721;28;103388;-81
2022/11/16 08:56:10;;;;;;;18.90;17.10;;;;;;;21.27;37.15;94521.63;6171608;28;102801;-81
2022/11/16 08:59:17;;;;;;;19.43;17.70;;;;;;;21.29;37.36;94514.13;6163396;28;102991;-82
2022/11/16 09:02:24;;;;;;;20.27;18.37;;;;;;;21.28;37.52;94517.88;6170173;28;103058;-81
2022/11/16 09:05:27;;;;;;;20.30;18.30;;;;;;;21.27;37.23;94516.31;6169136;28;104161;-81
2022/11/16 09:08:31;;;;;;;19.20;17.37;;;;;;;21.27;37.18;94512.88;6166112;28;102977;-82
2022/11/16 09:11:34;;;;;;;19.30;17.60;;;;;;;21.28;37.42;94517.88;6163711;28;103457;-82
2022/11/16 09:14:39;;;;;;;18.77;17.10;;;;;;;21.27;37.37;94523.50;6169331;28;102700;-82
2022/11/16 09:17:42;;;;;;;19.33;17.63;;;;;;;21.29;37.26;94503.47;6169243;28;103051;-81
2022/11/16 09:20:45;;;;;;;18.83;17.03;;;;;;;21.29;37.36;94495.50;6161859;28;106720;-82
2022/11/16 09:23:49;;;;;;;19.00;17.17;;;;;;;21.20;37.13;94486.75;6168893;28;103941;-79
2022/11/16 09:26:55;;;;;;;19.87;17.90;;;;;;;21.30;37.40;94486.41;6169312;28;105942;-80
2022/11/16 09:30:00;;;;;;;20.17;18.30;;;;;;;21.23;37.37;94464.81;6170435;28;103418;-80
2022/11/16 09:33:03;;;;;;;20.00;18.13;;;;;;;21.30;37.25;94470.44;6160853;28;104928;-80
2022/11/16 09:36:08;;;;;;;19.17;17.27;;;;;;;21.27;37.26;94465.75;6170034;28;103402;-79
2022/11/16 09:39:12;;;;;;;18.90;17.20;;;;;;;21.29;37.64;94460.09;6169449;28;103588;-80
2022/11/16 09:42:51;;;;;;;19.33;17.43;;;;;;;21.21;37.82;94435.09;6167154;28;103336;-81
2022/11/16 09:46:05;;;;;;;20.60;18.60;;;;;;;21.29;37.45;94436.94;6168602;28;102618;-80
2022/11/16 09:49:13;;;;;;;19.40;17.60;;;;;;;21.26;37.64;94437.56;6169555;28;103657;-79
2022/11/16 09:52:29;;;;;;;19.13;17.30;;;;;;;21.27;37.64;94431.16;6170358;28;103876;-79
2022/11/16 09:55:37;;;;;;;19.00;17.27;;;;;;;21.30;37.74;94433.19;6161540;28;103208;-80
2022/11/16 09:58:46;;;;;;;18.30;16.50;;;;;;;21.31;37.69;94424.09;6168715;28;102633;-79
2022/11/16 10:01:56;;;;;;;18.37;16.60;;;;;;;21.33;37.38;94426.44;6168318;28;104214;-77
2022/11/16 10:05:04;;;;;;;19.07;17.27;;;;;;;21.34;37.83;94404.88;6167162;28;103385;-82
2022/11/16 10:08:14;;;;;;;19.27;17.50;;;;;;;21.35;37.04;94403.75;6164162;28;103660;-78
2022/11/16 10:11:42;;;;;;;17.90;16.30;;;;;;;21.37;37.91;94401.56;6168920;28;107550;-78
2022/11/16 10:15:22;;;;;;;17.47;15.87;;;;;;;21.40;37.29;94395.59;6165930;28;103694;-80
2022/11/16 10:18:48;;;;;;;17.73;16.10;;;;;;;21.42;37.31;94380.09;6161866;28;102692;-79
2022/11/16 10:22:00;;;;;;;18.03;16.33;;;;;;;21.46;37.37;94370.38;6166480;28;104025;-78
2022/11/16 10:25:12;;;;;;;17.17;15.57;;;;;;;21.52;37.26;94371.00;6168345;28;102694;-78
2022/11/16 10:28:35;;;;;;;17.33;15.63;;;;;;;21.54;37.56;94371.47;6163221;28;103069;-79
2022/11/16 10:32:08;;;;;;;17.33;15.80;;;;;;;21.59;37.66;94365.16;6167136;28;104662;-78
2022/11/16 10:35:18;;;;;;;17.30;15.77;;;;;;;21.64;37.58;94355.13;6168333;28;103170;-78
2022/11/16 10:38:25;;;;;;;17.40;15.83;;;;;;;21.64;37.61;94354.34;6168573;28;103133;-78
2022/11/16 10:41:33;;;;;;;17.83;16.23;;;;;;;21.64;37.53;94347.13;6159502;28;105314;-78
2022/11/16 10:44:40;;;;;;;17.13;15.63;;;;;;;21.65;37.46;94340.69;6167864;28;104473;-78
2022/11/16 10:47:49;;;;;;;17.60;16.00;;;;;;;21.64;37.54;94341.03;6167223;28;103088;-78
2022/11/16 10:50:54;;;;;;;16.53;15.03;;;;;;;21.65;37.36;94342.59;6163587;28;104114;-79
2022/11/16 10:53:57;;;;;;;16.53;15.00;;;;;;;21.65;37.30;94335.38;6163434;28;104441;-78
2022/11/16 10:57:05;;;;;;;16.67;15.07;;;;;;;21.63;37.59;94332.25;6165687;28;104021;-79
2022/11/16 11:00:14;;;;;;;16.97;15.43;;;;;;;21.63;37.66;94334.13;6166574;28;102950;-79
2022/11/16 11:03:31;;;;;;;16.50;15.07;;;;;;;21.63;38.17;94320.81;6158157;28;106473;-79
2022/11/16 11:06:38;;;;;;;16.87;15.30;;;;;;;21.59;38.41;94322.56;6165707;28;103472;-79
2022/11/16 11:09:43;;;;;;;16.63;15.00;;;;;;;21.58;38.41;94307.69;6165345;28;103309;-79
2022/11/16 11:13:02;;;;;;;17.03;15.50;;;;;;;21.58;38.34;94305.03;6165042;28;104456;-79
2022/11/16 11:16:17;;;;;;;17.13;15.53;;;;;;;21.55;38.21;94295.03;6159272;28;103253;-79
2022/11/16 11:19:26;;;;;;;16.63;15.13;;;;;;;21.54;38.44;94294.25;6166626;28;104459;-79
2022/11/16 11:22:32;;;;;;;17.10;15.40;;;;;;;21.51;38.19;94285.03;6165409;28;106250;-79
2022/11/16 11:25:40;;;;;;;16.43;14.90;;;;;;;21.51;38.31;94274.38;6159114;28;103490;-80
2022/11/16 11:28:49;;;;;;;17.17;15.57;;;;;;;21.48;38.07;94274.22;6164667;28;105307;-79
2022/11/16 11:31:58;;;;;;;15.50;14.10;;;;;;;21.47;38.20;94267.34;6165421;28;107022;-78
2022/11/16 11:35:02;;;;;;;16.00;14.60;;;;;;;21.41;38.56;94256.09;6166794;28;103544;-78
2022/11/16 11:38:07;;;;;;;15.33;14.03;;;;;;;21.42;38.51;94257.66;6162785;28;103422;-78
2022/11/16 11:41:18;;;;;;;16.17;14.67;;;;;;;21.42;38.25;94262.19;6169130;28;105285;-79
2022/11/16 11:44:36;;;;;;;16.67;15.00;;;;;;;21.41;38.34;94256.09;6168933;28;103124;-79
2022/11/16 11:47:52;;;;;;;16.17;14.67;;;;;;;21.42;38.46;94252.34;6166630;28;104814;-79
2022/11/16 11:51:10;;;;;;;15.07;13.70;;;;;;;21.46;38.38;94253.25;6170110;28;104132;-79
2022/11/16 11:54:23;;;;;;;15.87;14.50;;;;;;;21.44;38.23;94238.72;6170027;28;104400;-79
2022/11/16 11:57:26;;;;;;;15.67;13.93;;;;;;;21.36;38.04;94226.22;6170690;28;103584;-78
2022/11/16 12:00:39;;;;;;;15.00;13.67;;;;;;;21.43;38.55;94234.47;6161813;28;106521;-78
2022/11/16 12:03:57;;;;;;;16.17;14.67;;;;;;;21.45;38.39;94222.41;6170081;28;106079;-79
2022/11/16 12:07:11;;;;;;;15.63;14.20;;;;;;;21.45;38.14;94230.41;6169424;28;105515;-79
2022/11/16 12:10:27;;;;;;;15.33;13.97;;;;;;;21.47;38.36;94217.53;6166481;28;102730;-79
2022/11/16 12:13:56;;;;;;;15.10;13.70;;;;;;;21.47;38.63;94214.09;6166562;28;107287;-79
2022/11/16 12:17:07;;;;;;;15.67;14.27;;;;;;;21.45;38.02;94210.97;6170532;28;103676;-79
2022/11/16 12:20:28;;;;;;;15.40;14.00;;;;;;;21.47;38.08;94206.13;6169409;28;104816;-79
2022/11/16 12:23:57;;;;;;;14.20;12.90;;;;;;;21.47;38.26;94208.78;6161914;28;106833;-78
2022/11/16 12:27:14;;;;;;;14.63;13.33;;;;;;;21.44;38.41;94199.56;6169534;28;106556;-79
2022/11/16 12:30:20;;;;;;;14.73;13.43;;;;;;;21.44;38.52;94199.56;6169266;28;105307;-79
2022/11/16 12:33:33;;;;;;;14.57;13.30;;;;;;;21.42;38.38;94188.47;6161632;28;103740;-80
2022/11/16 12:36:47;;;;;;;14.53;13.23;;;;;;;21.42;38.59;94185.78;6168396;28;102939;-79
2022/11/16 12:40:08;;;;;;;14.73;13.33;;;;;;;21.41;38.56;94186.91;6168575;28;104391;-79
2022/11/16 12:43:21;;;;;;;14.70;13.30;;;;;;;21.40;38.59;94172.03;6169312;28;104087;-79
2022/11/16 12:46:37;;;;;;;13.83;12.63;;;;;;;21.47;38.87;94166.97;6163227;28;103851;-81
2022/11/16 12:50:04;;;;;;;13.97;12.77;;;;;;;21.52;38.52;94166.81;6171772;28;102752;-80
2022/11/16 12:53:24;;;;;;;14.67;13.37;;;;;;;21.55;38.66;94165.38;6173309;28;103328;-81
2022/11/16 12:56:40;;;;;;;14.77;13.47;;;;;;;21.58;38.88;94162.06;6166314;28;103402;-81
2022/11/16 13:00:06;;;;;;;14.13;12.83;;;;;;;21.58;38.91;94156.72;6173167;28;103331;-80
2022/11/16 13:03:17;;;;;;;14.60;13.30;;;;;;;21.48;39.11;94144.56;6173685;28;107235;-80
2022/11/16 13:06:26;;;;;;;14.60;13.17;;;;;;;21.61;39.00;94163.28;6172739;28;102729;-80
2022/11/16 13:09:33;;;;;;;14.03;12.70;;;;;;;21.61;39.42;94161.41;6163569;28;105742;-80
2022/11/16 13:12:38;;;;;;;13.77;12.57;;;;;;;21.64;39.01;94150.09;6169857;28;103440;-81
2022/11/16 13:15:45;;;;;;;14.30;13.00;;;;;;;21.66;39.22;94155.09;6172399;28;103061;-80
2022/11/16 13:18:48;;;;;;;14.83;13.53;;;;;;;21.59;39.61;94149.53;6147049;28;103677;-81
2022/11/16 13:21:58;;;;;;;14.23;12.97;;;;;;;21.56;39.28;94152.84;6147280;28;106510;-82
2022/11/16 13:25:14;;;;;;;13.00;11.80;;;;;;;21.51;39.14;94145.84;6147288;28;104242;-79
2022/11/16 13:28:24;;;;;;;14.07;12.87;;;;;;;21.48;39.42;94152.56;6146631;28;106446;-79
2022/11/16 13:31:43;;;;;;;13.77;12.60;;;;;;;21.46;39.44;94146.78;6138549;28;104244;-80
2022/11/16 13:34:47;;;;;;;13.90;12.70;;;;;;;21.45;39.31;94142.56;6146481;28;103705;-80
2022/11/16 13:37:51;;;;;;;13.10;12.00;;;;;;;21.44;39.37;94135.69;6147012;28;103326;-80
2022/11/16 13:41:27;;;;;;;12.97;11.77;;;;;;;21.45;39.64;94141.78;6142685;28;106107;-81
2022/11/16 13:44:31;;;;;;;12.47;11.33;;;;;;;21.44;39.31;94132.25;6144312;28;107483;-81
2022/11/16 13:47:37;;;;;;;13.33;12.13;;;;;;;21.42;39.36;94127.25;6146271;28;102763;-80
2022/11/16 13:50:48;;;;;;;13.00;11.90;;;;;;;21.41;39.34;94138.22;6146482;28;105241;-80
2022/11/16 13:53:53;;;;;;;13.30;12.10;;;;;;;21.40;39.19;94140.09;6138710;28;102766;-79
2022/11/16 13:57:24;;;;;;;13.27;12.07;;;;;;;21.42;39.16;94145.09;6145934;28;103069;-80
2022/11/16 14:00:32;;;;;;;13.10;11.87;;;;;;;21.38;39.62;94142.31;6145118;28;104220;-81
2022/11/16 14:03:41;;;;;;;13.40;12.20;;;;;;;21.40;39.16;94131.34;6141884;28;103528;-82
2022/11/16 14:06:59;;;;;;;13.77;12.60;;;;;;;21.41;39.16;94132.91;6142405;28;103856;-80
2022/11/16 14:10:06;;;;;;;13.23;12.00;;;;;;;21.42;39.04;94143.22;6145498;28;106858;-81
2022/11/16 14:13:38;;;;;;;13.13;12.03;;;;;;;21.41;39.07;94135.56;6145242;28;105043;-80
2022/11/16 14:16:49;;;;;;;12.13;11.03;;;;;;;21.41;39.03;94125.69;6137256;28;102737;-80
2022/11/16 14:19:55;;;;;;;12.87;11.73;;;;;;;21.39;39.34;94133.22;6143705;28;103438;-81
2022/11/16 14:23:21;;;;;;;13.70;12.47;;;;;;;21.37;38.96;94127.44;6144744;28;105394;-80
2022/11/16 14:26:37;;;;;;;13.13;11.93;;;;;;;21.41;39.07;94115.03;6140868;28;105121;-79
2022/11/16 14:29:56;;;;;;;13.10;12.00;;;;;;;21.39;39.49;94114.59;6141536;28;103304;-80
2022/11/16 14:32:59;;;;;;;12.50;11.37;;;;;;;21.39;38.91;94117.25;6145202;28;106410;-81
2022/11/16 14:36:07;;;;;;;13.07;11.87;;;;;;;21.40;39.39;94113.47;6146137;28;106361;-80
2022/11/16 14:39:29;;;;;;;12.67;11.43;;;;;;;21.40;39.42;94121.47;6138375;28;105489;-81
2022/11/16 14:42:37;;;;;;;12.50;11.30;;;;;;;21.38;39.08;94110.38;6145319;28;103236;-81
2022/11/16 14:46:07;;;;;;;12.60;11.50;;;;;;;21.41;39.43;94108.94;6145153;28;103288;-80
2022/11/16 14:49:15;;;;;;;12.50;11.40;;;;;;;21.40;38.80;94105.50;6141573;28;104110;-81
2022/11/16 14:52:26;;;;;;;12.37;11.27;;;;;;;21.40;39.29;94099.41;6142485;28;102754;-80